16:18
Airports
History
Links
Donate
Help keep this website running!
PayPal
Bitcoin
This page is community maintained. The information is intended for PC simulator navigation or reference.
Always use approved charts for navigation.
LINL
Lecce Lepore
Lecce Lepore (LINL)
Lecce, Puglia, Italy (73100)
(C)
Lat/Lng:40° 21' 24" N / 18° 17' 36" E
40.356667 / 18.293333
Elevation:59'ft / 18mMSL
ID / ICAO:LINL
Runways:1
Longest:18-36
Grass 692m / 2,270ft
Controlled:Yes
Nearby Weather15:55 GMT 2017-10-19
Nearby weather at LIBN, LECCE located 11.7 nautical miles from LINL
Altimeter: 30.03
Visibility: 6.2 statute miles
Wind: 7 knots (from 160°)
Temp: 21°c / 70°f
Humidity: 77.9%

METAR: LIBN 191555Z 16007KT CAVOK 21/17 Q1017 RMK FEW FEW180 VIS MIN 9999 WIND THR14 16007KT WIND THR32 16007KT BLU

(Powered by phpweather)
Nearby VORs <50NM
Nearby NDBs
Runway 18 / 36
Dimensions:692 x 29.9m 2270' x 98'ft
Surface:Grass
Runway 18 [A]Runway 36 [B]
Heading:177°TH 357°TH
Lat:
Lng:
40° 21' 35.33"N
18° 17' 35.48"E
40° 21' 12.67"N
18° 17' 36.52"E
User Notes and Comments
40° 21' 24" N / 18° 17' 36" E
Distance To
Airport ID:
Nearby Airports
(C) LECCE 11.7 NM
LIBN ( WX ) SW 226°
(C) BRINDISI/Casale 28.0 NM
LIBR ( WX ) NW 318°
(C) GROTTAGLIE 48.1 NM
LIBG ( WX ) WNW 283°
(C) GIOIA DEL COLLE 76.8 NM
LIBV ( WX ) WNW 291°
(C) KUCOVA 89.2 NM
LAKV ENE 71°
(C) Bari Palese Macchie 96.7 NM
LIBD ( WX ) WNW 303°
4 GJIROKASTER 99.9 NM
LA10 E 100°
VFR Chart
Flight Planning at SkyVector.com